createdAt,value
2023-05-08T00:01:33.294Z,101697.66
2023-05-08T00:04:03.381Z,101698.00
2023-05-08T00:06:33.412Z,101696.84
2023-05-08T00:09:06.210Z,101702.34
2023-05-08T00:11:36.079Z,101698.47
2023-05-08T00:14:06.245Z,101700.06
2023-05-08T00:16:36.283Z,101701.69
2023-05-08T00:19:07.020Z,101698.94
2023-05-08T00:21:37.101Z,101695.25
2023-05-08T00:24:10.315Z,101695.25
2023-05-08T00:26:42.104Z,101697.56
2023-05-08T00:29:12.264Z,101697.56
2023-05-08T00:31:42.241Z,101697.56
2023-05-08T00:34:12.431Z,101703.84
2023-05-08T00:36:42.267Z,101699.16
2023-05-08T00:39:16.749Z,101699.94
2023-05-08T00:41:47.894Z,101702.34
2023-05-08T00:44:21.070Z,101697.19
2023-05-08T00:46:51.626Z,101694.44
2023-05-08T00:49:22.319Z,101698.69
2023-05-08T00:51:56.463Z,101691.09
2023-05-08T00:54:29.919Z,101692.50
2023-05-08T00:57:00.142Z,101689.97
2023-05-08T00:59:30.072Z,101688.25
2023-05-08T01:01:59.989Z,101697.56
2023-05-08T01:04:30.662Z,101699.38
2023-05-08T01:07:00.524Z,101701.19
2023-05-08T01:09:33.359Z,101695.59
2023-05-08T01:12:11.699Z,101700.16
2023-05-08T01:14:58.467Z,101700.72
2023-05-08T01:17:43.700Z,101697.53
2023-05-08T01:20:24.904Z,101698.69
2023-05-08T01:23:22.021Z,101700.97
2023-05-08T01:26:24.800Z,101698.44
2023-05-08T01:29:34.069Z,101705.75
2023-05-08T01:32:30.694Z,101704.84
2023-05-08T01:35:12.917Z,101704.84
2023-05-08T01:37:50.578Z,101706.00
2023-05-08T01:40:27.806Z,101711.00
2023-05-08T01:43:06.566Z,101707.81
2023-05-08T01:45:41.339Z,101715.59
2023-05-08T01:48:20.108Z,101706.91
2023-05-08T01:50:52.423Z,101705.63
2023-05-08T01:53:27.474Z,101708.72
2023-05-08T01:56:02.938Z,101709.84
2023-05-08T01:58:36.620Z,101717.63
2023-05-08T02:01:10.092Z,101713.59
2023-05-08T02:03:44.702Z,101721.03
2023-05-08T02:06:17.561Z,101726.06
2023-05-08T02:08:48.501Z,101726.41
2023-05-08T02:11:20.348Z,101728.69
2023-05-08T02:13:52.734Z,101725.03
2023-05-08T02:16:24.924Z,101731.66
2023-05-08T02:19:01.639Z,101732.81
2023-05-08T02:21:34.888Z,101731.97
2023-05-08T02:24:07.284Z,101739.09
2023-05-08T02:26:38.739Z,101743.78
2023-05-08T02:29:09.092Z,101734.41
2023-05-08T02:31:41.995Z,101737.59
2023-05-08T02:34:15.632Z,101740.00
2023-05-08T02:36:46.129Z,101743.22
2023-05-08T02:39:18.024Z,101735.47
2023-05-08T02:41:48.824Z,101739.81
2023-05-08T02:44:18.687Z,101736.25
2023-05-08T02:46:55.377Z,101732.38
2023-05-08T02:49:34.985Z,101735.47
2023-05-08T02:52:11.615Z,101734.31
2023-05-08T02:54:46.467Z,101733.97
2023-05-08T02:57:26.091Z,101733.84
2023-05-08T03:00:02.836Z,101728.38
2023-05-08T03:02:39.114Z,101732.22
2023-05-08T03:05:18.604Z,101729.03
2023-05-08T03:07:52.052Z,101737.25
2023-05-08T03:10:24.877Z,101740.34
2023-05-08T03:12:57.452Z,101733.09
2023-05-08T03:15:30.494Z,101730.78
2023-05-08T03:18:05.701Z,101726.63
2023-05-08T03:20:43.097Z,101717.47
2023-05-08T03:23:15.542Z,101723.63
2023-05-08T03:25:46.616Z,101727.88
2023-05-08T03:28:17.594Z,101727.38
2023-05-08T03:30:48.368Z,101725.66
2023-05-08T03:33:20.626Z,101716.94
2023-05-08T03:35:54.226Z,101719.56
2023-05-08T03:38:24.254Z,101726.19
2023-05-08T03:40:54.356Z,101721.06
2023-05-08T03:43:25.198Z,101723.31
2023-05-08T03:45:55.597Z,101724.00
2023-05-08T03:48:26.575Z,101717.56
2023-05-08T03:51:00.478Z,101721.44
2023-05-08T03:53:31.794Z,101722.13
2023-05-08T03:56:02.326Z,101732.16
2023-05-08T03:58:40.513Z,101732.81
2023-05-08T04:01:15.067Z,101729.59
2023-05-08T04:03:57.620Z,101724.00
2023-05-08T04:06:45.800Z,101729.00
2023-05-08T04:09:24.984Z,101732.41
2023-05-08T04:12:04.049Z,101730.00
2023-05-08T04:14:40.879Z,101735.38
2023-05-08T04:17:13.361Z,101732.94
2023-05-08T04:19:58.818Z,101737.34
2023-05-08T04:22:35.502Z,101742.00
2023-05-08T04:25:10.105Z,101731.72
2023-05-08T04:27:41.082Z,101737.84
2023-05-08T04:30:12.670Z,101732.38
2023-05-08T04:32:44.802Z,101736.25
2023-05-08T04:35:16.556Z,101738.53
2023-05-08T04:37:50.467Z,101738.53
2023-05-08T04:40:20.391Z,101745.50
2023-05-08T04:42:52.503Z,101747.88
2023-05-08T04:45:22.857Z,101746.75
2023-05-08T04:47:52.998Z,101739.47
2023-05-08T04:50:23.235Z,101744.28
2023-05-08T04:52:56.047Z,101747.16
2023-05-08T04:55:26.215Z,101750.06
2023-05-08T04:57:56.308Z,101748.25
2023-05-08T05:00:26.354Z,101749.19
2023-05-08T05:02:56.234Z,101758.38
2023-05-08T05:05:26.080Z,101741.25
2023-05-08T05:07:58.489Z,101753.16
2023-05-08T05:10:28.595Z,101749.75
2023-05-08T05:12:58.626Z,101758.91
2023-05-08T05:15:28.720Z,101759.38
2023-05-08T05:17:58.754Z,101755.97
2023-05-08T05:20:28.871Z,101762.41
2023-05-08T05:23:01.570Z,101757.81
2023-05-08T05:25:31.456Z,101762.66
2023-05-08T05:28:01.638Z,101757.28
2023-05-08T05:30:31.676Z,101757.44
2023-05-08T05:33:01.920Z,101760.66
2023-05-08T05:35:31.901Z,101768.88
2023-05-08T05:38:04.548Z,101763.84
2023-05-08T05:40:34.713Z,101766.13
2023-05-08T05:43:04.633Z,101769.22
2023-05-08T05:45:34.849Z,101767.72
2023-05-08T05:48:05.181Z,101778.06
2023-05-08T05:50:38.197Z,101775.78
2023-05-08T05:53:10.868Z,101776.22
2023-05-08T05:55:41.521Z,101769.59
2023-05-08T05:58:11.599Z,101768.78
2023-05-08T06:00:41.489Z,101771.22
2023-05-08T06:03:14.167Z,101774.88
2023-05-08T06:05:44.429Z,101767.47
2023-05-08T06:08:18.079Z,101773.22
2023-05-08T06:10:48.035Z,101768.66
2023-05-08T06:13:17.935Z,101772.94
2023-05-08T06:15:47.888Z,101770.00
2023-05-08T06:18:17.912Z,101770.00
2023-05-08T06:20:47.748Z,101770.25
2023-05-08T06:23:20.195Z,101758.81
2023-05-08T06:25:50.128Z,101755.66
2023-05-08T06:28:20.336Z,101757.97
2023-05-08T06:30:50.251Z,101770.38
2023-05-08T06:33:20.151Z,101769.03
2023-05-08T06:35:50.563Z,101777.38
2023-05-08T06:38:23.377Z,101778.19
2023-05-08T06:40:54.204Z,101788.16
2023-05-08T06:43:24.160Z,101790.53
2023-05-08T06:45:54.341Z,101795.59
2023-05-08T06:48:29.303Z,101786.88
2023-05-08T06:51:02.275Z,101790.97
2023-05-08T06:53:34.828Z,101797.94
2023-05-08T06:56:04.724Z,101801.72
2023-05-08T06:58:34.681Z,101793.22
2023-05-08T07:01:04.609Z,101797.53
2023-05-08T07:03:37.280Z,101793.38
2023-05-08T07:06:10.172Z,101793.34
2023-05-08T07:08:44.920Z,101794.13
2023-05-08T07:11:14.855Z,101789.75
2023-05-08T07:13:48.326Z,101793.94
2023-05-08T07:16:18.993Z,101786.31
2023-05-08T07:18:48.841Z,101792.41
2023-05-08T07:21:20.486Z,101788.75
2023-05-08T07:23:56.587Z,101799.50
2023-05-08T07:26:26.536Z,101805.03
2023-05-08T07:28:56.793Z,101802.28
2023-05-08T07:31:26.637Z,101809.69
2023-05-08T07:33:56.670Z,101808.88
2023-05-08T07:36:26.691Z,101807.44
2023-05-08T07:38:59.131Z,101815.69
2023-05-08T07:41:29.434Z,101815.78
2023-05-08T07:43:59.458Z,101811.06
2023-05-08T07:46:29.463Z,101807.63
2023-05-08T07:48:59.334Z,101808.50
2023-05-08T07:51:29.322Z,101808.34
2023-05-08T07:54:01.823Z,101809.69
2023-05-08T07:56:31.772Z,101820.88
2023-05-08T07:59:01.816Z,101820.41
2023-05-08T08:01:31.722Z,101820.97
2023-05-08T08:04:01.817Z,101818.75
2023-05-08T08:06:31.972Z,101817.78
2023-05-08T08:09:04.676Z,101819.19
2023-05-08T08:11:34.635Z,101817.06
2023-05-08T08:14:04.588Z,101814.50
2023-05-08T08:16:34.579Z,101815.91
2023-05-08T08:19:04.611Z,101816.66
2023-05-08T08:21:34.457Z,101809.72
2023-05-08T08:24:07.888Z,101811.09
2023-05-08T08:26:37.941Z,101809.47
2023-05-08T08:29:07.952Z,101807.66
2023-05-08T08:31:38.058Z,101799.28
2023-05-08T08:34:08.014Z,101799.66
2023-05-08T08:36:37.957Z,101800.06
2023-05-08T08:39:12.446Z,101800.00
2023-05-08T08:41:43.570Z,101810.53
2023-05-08T08:44:13.406Z,101804.19
2023-05-08T08:46:49.037Z,101812.75
2023-05-08T08:49:22.157Z,101803.25
2023-05-08T08:51:56.028Z,101810.69
2023-05-08T08:54:32.954Z,101811.53
2023-05-08T08:57:05.082Z,101805.94
2023-05-08T08:59:36.936Z,101823.34
2023-05-08T09:02:12.494Z,101813.88
2023-05-08T09:04:42.526Z,101814.31
2023-05-08T09:07:13.568Z,101807.50
2023-05-08T09:09:47.506Z,101814.66
2023-05-08T09:12:17.672Z,101816.31
2023-05-08T09:14:47.695Z,101814.84
2023-05-08T09:17:17.613Z,101814.88
2023-05-08T09:19:48.155Z,101825.19
2023-05-08T09:22:18.627Z,101827.56
2023-05-08T09:25:03.560Z,101826.69
2023-05-08T09:27:36.952Z,101822.38
2023-05-08T09:30:08.868Z,101823.53
2023-05-08T09:32:40.429Z,101816.25
2023-05-08T09:35:13.398Z,101826.31
2023-05-08T09:37:45.088Z,101830.28
2023-05-08T09:40:25.436Z,101826.69
2023-05-08T09:42:55.285Z,101818.41
2023-05-08T09:45:32.608Z,101823.13
2023-05-08T09:48:02.587Z,101818.84
2023-05-08T09:50:33.715Z,101822.28
2023-05-08T09:53:03.799Z,101820.63
2023-05-08T09:55:49.885Z,101821.38
2023-05-08T09:58:19.981Z,101824.91
2023-05-08T10:00:49.901Z,101821.31
2023-05-08T10:03:20.370Z,101814.09
2023-05-08T10:05:50.219Z,101818.00
2023-05-08T10:08:25.488Z,101809.44
2023-05-08T10:11:06.759Z,101812.38
2023-05-08T10:13:36.555Z,101812.78
2023-05-08T10:16:06.878Z,101814.81
2023-05-08T10:18:41.371Z,101814.53
2023-05-08T10:21:12.093Z,101807.81
2023-05-08T10:23:43.065Z,101804.13
2023-05-08T10:26:19.775Z,101802.75
2023-05-08T10:28:58.218Z,101801.28
2023-05-08T10:31:31.997Z,101801.28
2023-05-08T10:34:05.284Z,101796.63
2023-05-08T10:36:36.179Z,101798.97
2023-05-08T10:39:06.243Z,101793.31
2023-05-08T10:41:39.607Z,101787.88
2023-05-08T10:44:10.891Z,101788.75
2023-05-08T10:46:49.245Z,101779.31
2023-05-08T10:49:23.308Z,101784.47
2023-05-08T10:52:09.784Z,101778.53
2023-05-08T10:55:04.811Z,101778.50
2023-05-08T10:57:37.342Z,101781.75
2023-05-08T11:00:08.808Z,101785.28
2023-05-08T11:02:38.762Z,101784.50
2023-05-08T11:05:19.100Z,101784.94
2023-05-08T11:07:58.851Z,101776.97
2023-05-08T11:10:37.540Z,101780.16
2023-05-08T11:13:11.702Z,101780.94
2023-05-08T11:15:43.067Z,101768.22
2023-05-08T11:18:14.017Z,101771.38
2023-05-08T11:20:45.152Z,101774.59
2023-05-08T11:23:28.269Z,101769.81
2023-05-08T11:26:08.990Z,101765.00
2023-05-08T11:28:43.561Z,101769.38
2023-05-08T11:31:13.415Z,101763.00
2023-05-08T11:33:43.365Z,101761.81
2023-05-08T11:36:17.638Z,101765.00
2023-05-08T11:39:07.944Z,101766.19
2023-05-08T11:41:39.354Z,101759.44
2023-05-08T11:44:31.275Z,101756.25
2023-05-08T11:47:07.022Z,101757.03
2023-05-08T11:49:39.576Z,101755.81
2023-05-08T11:52:09.966Z,101749.84
2023-05-08T11:54:48.209Z,101752.59
2023-05-08T11:57:20.386Z,101752.19
2023-05-08T11:59:57.984Z,101744.19
2023-05-08T12:02:41.230Z,101742.13
2023-05-08T12:05:12.562Z,101753.66
2023-05-08T12:07:49.336Z,101745.38
2023-05-08T12:10:19.464Z,101750.53
2023-05-08T12:12:49.557Z,101756.94
2023-05-08T12:15:22.104Z,101755.31
2023-05-08T12:17:52.137Z,101756.91
2023-05-08T12:20:23.047Z,101753.75
2023-05-08T12:22:56.833Z,101755.81
2023-05-08T12:25:28.912Z,101751.44
2023-05-08T12:28:00.082Z,101749.44
2023-05-08T12:30:32.822Z,101748.66
2023-05-08T12:33:04.861Z,101759.44
2023-05-08T12:35:35.802Z,101759.47
2023-05-08T12:38:06.396Z,101755.88
2023-05-08T12:40:38.958Z,101755.50
2023-05-08T12:43:08.833Z,101750.34
2023-05-08T12:45:43.166Z,101743.97
2023-05-08T12:48:17.169Z,101742.34
2023-05-08T12:50:49.306Z,101743.56
2023-05-08T12:53:20.695Z,101745.13
2023-05-08T12:55:55.203Z,101736.38
2023-05-08T12:58:29.047Z,101740.38
2023-05-08T13:01:12.231Z,101723.69
2023-05-08T13:03:43.291Z,101728.47
2023-05-08T13:06:23.961Z,101726.09
2023-05-08T13:08:57.440Z,101725.31
2023-05-08T13:11:38.888Z,101722.88
2023-05-08T13:14:09.368Z,101707.78
2023-05-08T13:16:52.706Z,101717.31
2023-05-08T13:19:22.771Z,101715.75
2023-05-08T13:21:53.086Z,101712.16
2023-05-08T13:24:24.400Z,101710.56
2023-05-08T13:26:54.193Z,101711.75
2023-05-08T13:29:24.506Z,101704.59
2023-05-08T13:31:57.177Z,101702.19
2023-05-08T13:34:27.283Z,101700.53
2023-05-08T13:36:57.131Z,101700.00
2023-05-08T13:39:27.065Z,101684.31
2023-05-08T13:41:56.848Z,101681.78
2023-05-08T13:44:26.731Z,101688.56
2023-05-08T13:46:59.384Z,101679.34
2023-05-08T13:49:29.272Z,101681.63
2023-05-08T13:51:59.184Z,101673.72
2023-05-08T13:54:29.055Z,101680.25
2023-05-08T13:56:59.180Z,101677.09
2023-05-08T13:59:29.241Z,101683.44
2023-05-08T14:02:02.199Z,101672.22
2023-05-08T14:04:32.372Z,101669.00
2023-05-08T14:07:02.644Z,101659.91
2023-05-08T14:09:32.567Z,101661.94
2023-05-08T14:12:02.841Z,101672.28
2023-05-08T14:14:34.513Z,101668.38
2023-05-08T14:17:07.436Z,101671.13
2023-05-08T14:19:37.987Z,101663.47
2023-05-08T14:22:08.204Z,101669.06
2023-05-08T14:24:38.134Z,101669.97
2023-05-08T14:27:07.978Z,101666.06
2023-05-08T14:29:38.066Z,101667.69
2023-05-08T14:32:11.286Z,101668.56
2023-05-08T14:34:41.717Z,101671.75
2023-05-08T14:37:11.589Z,101668.53
2023-05-08T14:39:41.496Z,101669.28
2023-05-08T14:44:44.444Z,101673.25
2023-05-08T14:47:16.946Z,101666.06
2023-05-08T14:49:46.823Z,101666.16
2023-05-08T14:52:16.749Z,101668.56
2023-05-08T14:54:48.165Z,101663.41
2023-05-08T14:57:18.244Z,101668.94
2023-05-08T15:02:40.931Z,101666.19
2023-05-08T15:05:19.122Z,101659.88
2023-05-08T15:07:50.365Z,101673.03
2023-05-08T15:10:23.393Z,101669.50
2023-05-08T15:12:53.449Z,101663.19
2023-05-08T15:15:24.279Z,101668.75
2023-05-08T15:17:56.864Z,101670.31
2023-05-08T15:20:26.833Z,101670.34
2023-05-08T15:23:04.306Z,101671.91
2023-05-08T15:25:34.185Z,101671.97
2023-05-08T15:28:04.105Z,101669.59
2023-05-08T15:30:36.012Z,101667.25
2023-05-08T15:33:08.577Z,101668.03
2023-05-08T15:35:40.951Z,101671.63
2023-05-08T15:38:11.827Z,101671.22
2023-05-08T15:40:42.505Z,101672.81
2023-05-08T15:43:12.456Z,101679.97
2023-05-08T15:45:42.624Z,101673.19
2023-05-08T15:48:15.627Z,101670.44
2023-05-08T15:50:45.646Z,101663.28
2023-05-08T15:53:15.535Z,101662.09
2023-05-08T15:55:47.403Z,101664.88
2023-05-08T15:58:17.663Z,101659.31
2023-05-08T16:00:49.711Z,101655.34
2023-05-08T16:03:24.068Z,101660.13
2023-05-08T16:05:54.001Z,101663.28
2023-05-08T16:08:44.728Z,101658.53
2023-05-08T16:11:16.798Z,101659.31
2023-05-08T16:13:46.717Z,101656.94
2023-05-08T16:16:16.645Z,101662.84
2023-05-08T16:18:49.128Z,101660.03
2023-05-08T16:21:19.096Z,101656.84
2023-05-08T16:23:49.111Z,101656.81
2023-05-08T16:26:18.938Z,101646.47
2023-05-08T16:28:48.857Z,101647.22
2023-05-08T16:31:18.893Z,101647.97
2023-05-08T16:33:51.518Z,101649.53
2023-05-08T16:36:21.404Z,101644.34
2023-05-08T16:38:51.288Z,101640.78
2023-05-08T16:41:21.702Z,101638.78
2023-05-08T16:43:51.712Z,101642.34
2023-05-08T16:46:29.973Z,101633.59
2023-05-08T16:49:03.192Z,101639.09
2023-05-08T16:51:33.279Z,101634.31
2023-05-08T16:54:03.385Z,101634.66
2023-05-08T16:56:36.560Z,101639.44
2023-05-08T16:59:06.892Z,101633.88
2023-05-08T17:01:36.916Z,101631.91
2023-05-08T17:04:09.522Z,101636.63
2023-05-08T17:06:41.215Z,101639.78
2023-05-08T17:09:11.393Z,101638.19
2023-05-08T17:11:41.265Z,101647.34
2023-05-08T17:14:11.277Z,101640.59
2023-05-08T17:16:41.725Z,101647.34
2023-05-08T17:19:14.339Z,101641.38
2023-05-08T17:21:44.505Z,101649.25
2023-05-08T17:24:14.415Z,101650.31
2023-05-08T17:26:44.465Z,101646.69
2023-05-08T17:29:14.451Z,101652.97
2023-05-08T17:31:44.644Z,101650.56
2023-05-08T17:34:17.416Z,101655.97
2023-05-08T17:36:47.360Z,101650.34
2023-05-08T17:39:20.022Z,101647.88
2023-05-08T17:41:50.324Z,101656.41
2023-05-08T17:44:20.539Z,101659.97
2023-05-08T17:46:50.817Z,101657.97
2023-05-08T17:49:23.487Z,101653.19
2023-05-08T17:51:53.365Z,101653.56
2023-05-08T17:54:23.466Z,101653.03
2023-05-08T17:56:53.263Z,101651.81
2023-05-08T17:59:23.205Z,101656.88
2023-05-08T18:01:53.339Z,101656.81
2023-05-08T18:04:26.465Z,101655.16
2023-05-08T18:06:56.380Z,101659.09
2023-05-08T18:09:26.197Z,101665.41
2023-05-08T18:12:02.316Z,101655.94
2023-05-08T18:14:33.598Z,101647.25
2023-05-08T18:17:03.778Z,101655.22
2023-05-08T18:19:36.520Z,101660.78
2023-05-08T18:22:06.703Z,101650.09
2023-05-08T18:24:36.765Z,101658.09
2023-05-08T18:27:06.922Z,101648.97
2023-05-08T18:29:36.801Z,101660.38
2023-05-08T18:32:07.244Z,101656.81
2023-05-08T18:34:39.686Z,101648.97
2023-05-08T18:37:09.554Z,101655.22
2023-05-08T18:39:39.443Z,101655.22
2023-05-08T18:42:09.368Z,101646.94
2023-05-08T18:44:39.209Z,101642.56
2023-05-08T18:47:09.854Z,101643.34
2023-05-08T18:49:44.021Z,101646.44
2023-05-08T18:52:14.637Z,101644.00
2023-05-08T18:54:44.534Z,101649.44
2023-05-08T18:57:14.439Z,101650.53
2023-05-08T18:59:44.361Z,101649.56
2023-05-08T19:02:14.676Z,101640.34
2023-05-08T19:04:47.215Z,101646.97
2023-05-08T19:07:17.277Z,101648.53
2023-05-08T19:09:47.237Z,101644.91
2023-05-08T19:12:17.159Z,101646.06
2023-05-08T19:14:47.065Z,101640.84
2023-05-08T19:17:17.019Z,101648.66
2023-05-08T19:19:49.609Z,101647.81
2023-05-08T19:22:19.577Z,101652.06
2023-05-08T19:24:49.514Z,101641.31
2023-05-08T19:27:19.374Z,101638.84
2023-05-08T19:29:49.303Z,101641.50
2023-05-08T19:32:19.199Z,101632.28
2023-05-08T19:34:51.829Z,101628.22
2023-05-08T19:37:21.652Z,101637.53
2023-05-08T19:39:51.784Z,101639.81
2023-05-08T19:42:21.715Z,101639.69
2023-05-08T19:44:51.524Z,101644.41
2023-05-08T19:47:21.451Z,101638.50
2023-05-08T19:49:54.416Z,101648.00
2023-05-08T19:52:24.368Z,101647.66
2023-05-08T19:54:54.152Z,101649.25
2023-05-08T19:57:24.016Z,101639.72
2023-05-08T19:59:54.072Z,101636.91
2023-05-08T20:02:24.032Z,101635.69
2023-05-08T20:07:29.451Z,101649.06
2023-05-08T20:09:59.389Z,101643.06
2023-05-08T20:12:29.353Z,101637.84
2023-05-08T20:14:59.265Z,101638.50
2023-05-08T20:17:29.188Z,101626.91
2023-05-08T20:20:01.731Z,101628.78
2023-05-08T20:22:31.526Z,101630.34
2023-05-08T20:25:04.258Z,101630.25
2023-05-08T20:27:34.639Z,101620.66
2023-05-08T20:30:04.470Z,101626.81
2023-05-08T20:32:34.432Z,101625.97
2023-05-08T20:35:07.195Z,101620.38
2023-05-08T20:37:37.025Z,101632.84
2023-05-08T20:40:07.724Z,101626.91
2023-05-08T20:42:38.147Z,101629.25
2023-05-08T20:45:09.379Z,101628.72
2023-05-08T20:47:39.478Z,101628.66
2023-05-08T20:50:13.137Z,101628.22
2023-05-08T20:52:43.150Z,101623.34
2023-05-08T20:55:13.539Z,101624.44
2023-05-08T20:57:43.522Z,101621.28
2023-05-08T21:00:17.069Z,101614.88
2023-05-08T21:02:47.192Z,101611.97
2023-05-08T21:05:19.866Z,101606.72
2023-05-08T21:07:49.850Z,101608.94
2023-05-08T21:10:20.026Z,101607.31
2023-05-08T21:12:49.877Z,101611.22
2023-05-08T21:15:20.097Z,101604.44
2023-05-08T21:17:50.650Z,101615.41
2023-05-08T21:20:23.406Z,101605.56
2023-05-08T21:22:53.254Z,101607.16
2023-05-08T21:25:23.310Z,101597.72
2023-05-08T21:27:55.111Z,101603.22
2023-05-08T21:30:25.467Z,101607.56
2023-05-08T21:33:03.171Z,101611.56
2023-05-08T21:35:35.686Z,101596.53
2023-05-08T21:38:05.984Z,101598.88
2023-05-08T21:40:36.014Z,101601.63
2023-05-08T21:43:05.834Z,101603.09
2023-05-08T21:45:36.453Z,101596.78
2023-05-08T21:48:06.690Z,101596.78
2023-05-08T21:50:39.146Z,101590.84
2023-05-08T21:53:09.082Z,101595.13
2023-05-08T21:55:39.078Z,101597.00
2023-05-08T21:58:09.162Z,101592.59
2023-05-08T22:00:39.156Z,101593.13
2023-05-08T22:03:09.537Z,101587.44
2023-05-08T22:05:42.147Z,101578.59
2023-05-08T22:08:11.983Z,101584.78
2023-05-08T22:10:44.406Z,101581.59
2023-05-08T22:13:15.186Z,101578.41
2023-05-08T22:15:46.113Z,101571.22
2023-05-08T22:18:16.393Z,101568.38
2023-05-08T22:20:48.942Z,101566.31
2023-05-08T22:23:18.920Z,101565.34
2023-05-08T22:25:49.029Z,101561.75
2023-05-08T22:28:18.851Z,101556.13
2023-05-08T22:30:48.746Z,101558.00
2023-05-08T22:33:18.608Z,101551.25
2023-05-08T22:35:51.209Z,101547.25
2023-05-08T22:38:21.488Z,101548.66
2023-05-08T22:40:52.685Z,101551.66
2023-05-08T22:43:22.699Z,101549.63
2023-05-08T22:45:52.969Z,101548.72
2023-05-08T22:48:23.022Z,101542.34
2023-05-08T22:50:55.848Z,101539.41
2023-05-08T22:53:26.041Z,101543.22
2023-05-08T22:55:56.169Z,101536.00
2023-05-08T22:58:27.501Z,101532.03
2023-05-08T23:00:59.808Z,101528.03
2023-05-08T23:03:29.883Z,101530.31
2023-05-08T23:06:05.137Z,101522.34
2023-05-08T23:08:35.092Z,101523.50
2023-05-08T23:11:05.005Z,101523.31
2023-05-08T23:13:35.126Z,101516.47
2023-05-08T23:16:06.196Z,101505.34
2023-05-08T23:18:36.307Z,101504.13
2023-05-08T23:21:12.179Z,101508.03
2023-05-08T23:23:42.168Z,101504.13
2023-05-08T23:26:12.018Z,101502.53
2023-05-08T23:28:41.881Z,101489.81
2023-05-08T23:31:11.798Z,101490.19
2023-05-08T23:33:41.682Z,101479.63
2023-05-08T23:36:15.172Z,101480.53
2023-05-08T23:38:47.862Z,101478.28
2023-05-08T23:41:17.807Z,101476.81
2023-05-08T23:43:47.722Z,101478.41
2023-05-08T23:46:17.798Z,101476.81
2023-05-08T23:48:47.666Z,101468.81
2023-05-08T23:51:20.470Z,101471.13
2023-05-08T23:53:50.710Z,101468.72
2023-05-08T23:56:21.958Z,101471.47
2023-05-08T23:58:51.829Z,101471.72
